Paradas, Spain
Current Conditions -  °F | °C
As of 9:00 AM on Saturday 20 Dec 2014 (Local Time) from LEMO Reporting Station
Moderate Fog Moderate Fog  
Wind Chill: 41°   Ceiling: 100
Heat Index: 45°   Visibility: 0.06mi
Dew Point: 45°   Wind: 6mph
Humidity: 100%   Direction: 50°NE
Pressure: 30.45"   Gusts: NA
Location:  37.29°N, 5.5°W
Report Text: LEMO 200800Z 05005KT 0100 R02/0350N R20/0275N FG VV001 07/07 Q1031 NOSIG
Loading
Personal Weather Stations






























Interactive Weather Map New forecast layout! Learn more

10-Day Weather Forecast

Advertisements
Track Severe Weather on mobile